sensor_id;sensor_type;location;lat;lon;timestamp;temperature;humidity
4757;DHT22;2392;52.578;13.426;2022-12-07T00:01:15;3.50;99.90
4757;DHT22;2392;52.578;13.426;2022-12-07T00:03:44;3.50;99.90
4757;DHT22;2392;52.578;13.426;2022-12-07T00:06:13;3.50;99.90
4757;DHT22;2392;52.578;13.426;2022-12-07T00:08:41;3.50;99.90
4757;DHT22;2392;52.578;13.426;2022-12-07T00:11:11;3.40;99.90
4757;DHT22;2392;52.578;13.426;2022-12-07T00:13:39;3.40;99.90
4757;DHT22;2392;52.578;13.426;2022-12-07T00:16:08;3.40;99.90
4757;DHT22;2392;52.578;13.426;2022-12-07T00:18:36;3.40;99.90
4757;DHT22;2392;52.578;13.426;2022-12-07T00:21:05;3.40;99.90
4757;DHT22;2392;52.578;13.426;2022-12-07T00:23:33;3.30;99.90
4757;DHT22;2392;52.578;13.426;2022-12-07T00:26:05;3.40;99.90
4757;DHT22;2392;52.578;13.426;2022-12-07T00:28:33;3.30;99.90
4757;DHT22;2392;52.578;13.426;2022-12-07T00:31:02;3.30;99.90
4757;DHT22;2392;52.578;13.426;2022-12-07T00:33:29;3.30;99.90
4757;DHT22;2392;52.578;13.426;2022-12-07T00:35:56;3.30;99.90
4757;DHT22;2392;52.578;13.426;2022-12-07T00:38:24;3.30;99.90
4757;DHT22;2392;52.578;13.426;2022-12-07T00:40:56;3.30;99.90
4757;DHT22;2392;52.578;13.426;2022-12-07T00:43:24;3.30;99.90
4757;DHT22;2392;52.578;13.426;2022-12-07T00:45:51;3.30;99.90
4757;DHT22;2392;52.578;13.426;2022-12-07T00:48:19;3.30;99.90
4757;DHT22;2392;52.578;13.426;2022-12-07T00:50:46;3.30;99.90
4757;DHT22;2392;52.578;13.426;2022-12-07T00:53:13;3.30;99.90
4757;DHT22;2392;52.578;13.426;2022-12-07T00:55:41;3.30;99.90
4757;DHT22;2392;52.578;13.426;2022-12-07T00:58:08;3.30;99.90
4757;DHT22;2392;52.578;13.426;2022-12-07T01:00:38;3.30;99.90
4757;DHT22;2392;52.578;13.426;2022-12-07T01:03:06;3.30;99.90
4757;DHT22;2392;52.578;13.426;2022-12-07T01:05:34;3.30;99.90
4757;DHT22;2392;52.578;13.426;2022-12-07T01:08:01;3.30;99.90
4757;DHT22;2392;52.578;13.426;2022-12-07T01:10:28;3.20;99.90
4757;DHT22;2392;52.578;13.426;2022-12-07T01:12:57;3.20;99.90
4757;DHT22;2392;52.578;13.426;2022-12-07T01:15:25;3.10;99.90
4757;DHT22;2392;52.578;13.426;2022-12-07T01:17:53;3.10;99.90
4757;DHT22;2392;52.578;13.426;2022-12-07T01:20:21;3.10;99.90
4757;DHT22;2392;52.578;13.426;2022-12-07T01:22:48;3.10;99.90
4757;DHT22;2392;52.578;13.426;2022-12-07T01:25:15;3.10;99.90
4757;DHT22;2392;52.578;13.426;2022-12-07T01:27:42;3.10;99.90
4757;DHT22;2392;52.578;13.426;2022-12-07T01:30:10;3.10;99.90
4757;DHT22;2392;52.578;13.426;2022-12-07T01:32:37;3.10;99.90
4757;DHT22;2392;52.578;13.426;2022-12-07T01:35:06;3.10;99.90
4757;DHT22;2392;52.578;13.426;2022-12-07T01:37:35;3.10;99.90
4757;DHT22;2392;52.578;13.426;2022-12-07T01:40:03;3.10;99.90
4757;DHT22;2392;52.578;13.426;2022-12-07T01:42:30;3.00;99.90
4757;DHT22;2392;52.578;13.426;2022-12-07T01:45:34;3.00;99.90
4757;DHT22;2392;52.578;13.426;2022-12-07T01:48:04;3.10;99.90
4757;DHT22;2392;52.578;13.426;2022-12-07T01:50:33;3.10;99.90
4757;DHT22;2392;52.578;13.426;2022-12-07T01:53:04;3.10;99.90
4757;DHT22;2392;52.578;13.426;2022-12-07T01:55:32;3.10;99.90
4757;DHT22;2392;52.578;13.426;2022-12-07T01:58:00;3.00;99.90
4757;DHT22;2392;52.578;13.426;2022-12-07T02:00:27;3.00;99.90
4757;DHT22;2392;52.578;13.426;2022-12-07T02:02:57;3.00;99.90
4757;DHT22;2392;52.578;13.426;2022-12-07T02:05:26;3.00;99.90
4757;DHT22;2392;52.578;13.426;2022-12-07T02:07:56;3.10;99.90
4757;DHT22;2392;52.578;13.426;2022-12-07T02:10:25;3.10;99.90
4757;DHT22;2392;52.578;13.426;2022-12-07T02:12:56;3.00;99.90
4757;DHT22;2392;52.578;13.426;2022-12-07T02:15:28;3.10;99.90
4757;DHT22;2392;52.578;13.426;2022-12-07T02:18:05;3.00;99.90
4757;DHT22;2392;52.578;13.426;2022-12-07T02:20:38;3.00;99.90
4757;DHT22;2392;52.578;13.426;2022-12-07T02:23:32;3.00;99.90
4757;DHT22;2392;52.578;13.426;2022-12-07T02:29:27;2.90;99.90
4757;DHT22;2392;52.578;13.426;2022-12-07T02:32:03;2.90;99.90
4757;DHT22;2392;52.578;13.426;2022-12-07T02:34:37;2.90;99.90
4757;DHT22;2392;52.578;13.426;2022-12-07T02:37:10;2.90;99.90
4757;DHT22;2392;52.578;13.426;2022-12-07T02:39:44;2.80;99.90
4757;DHT22;2392;52.578;13.426;2022-12-07T02:42:16;2.80;99.90
4757;DHT22;2392;52.578;13.426;2022-12-07T02:44:46;2.80;99.90
4757;DHT22;2392;52.578;13.426;2022-12-07T02:47:16;2.80;99.90
4757;DHT22;2392;52.578;13.426;2022-12-07T02:49:44;2.80;99.90
4757;DHT22;2392;52.578;13.426;2022-12-07T02:52:11;2.80;99.90
4757;DHT22;2392;52.578;13.426;2022-12-07T02:54:38;2.80;99.90
4757;DHT22;2392;52.578;13.426;2022-12-07T02:57:18;2.80;99.90
4757;DHT22;2392;52.578;13.426;2022-12-07T02:59:58;2.80;99.90
4757;DHT22;2392;52.578;13.426;2022-12-07T03:02:34;2.70;99.90
4757;DHT22;2392;52.578;13.426;2022-12-07T03:05:11;2.70;99.90
4757;DHT22;2392;52.578;13.426;2022-12-07T03:07:47;2.70;99.90
4757;DHT22;2392;52.578;13.426;2022-12-07T03:10:22;2.60;99.90
4757;DHT22;2392;52.578;13.426;2022-12-07T03:13:01;2.60;99.90
4757;DHT22;2392;52.578;13.426;2022-12-07T03:15:33;2.50;99.90
4757;DHT22;2392;52.578;13.426;2022-12-07T03:18:03;2.60;99.90
4757;DHT22;2392;52.578;13.426;2022-12-07T03:20:32;2.50;99.90
4757;DHT22;2392;52.578;13.426;2022-12-07T03:23:03;2.50;99.90
4757;DHT22;2392;52.578;13.426;2022-12-07T03:25:33;2.50;99.90
4757;DHT22;2392;52.578;13.426;2022-12-07T03:28:03;2.50;99.90
4757;DHT22;2392;52.578;13.426;2022-12-07T03:30:37;2.50;99.90
4757;DHT22;2392;52.578;13.426;2022-12-07T03:33:08;2.50;99.90
4757;DHT22;2392;52.578;13.426;2022-12-07T03:35:39;2.50;99.90
4757;DHT22;2392;52.578;13.426;2022-12-07T03:38:13;2.50;99.90
4757;DHT22;2392;52.578;13.426;2022-12-07T03:40:45;2.50;99.90
4757;DHT22;2392;52.578;13.426;2022-12-07T03:43:16;2.60;99.90
4757;DHT22;2392;52.578;13.426;2022-12-07T03:45:52;2.50;99.90
4757;DHT22;2392;52.578;13.426;2022-12-07T03:48:25;2.60;99.90
4757;DHT22;2392;52.578;13.426;2022-12-07T03:50:57;2.60;99.90
4757;DHT22;2392;52.578;13.426;2022-12-07T03:53:34;2.70;99.90
4757;DHT22;2392;52.578;13.426;2022-12-07T03:56:03;2.80;99.90
4757;DHT22;2392;52.578;13.426;2022-12-07T03:58:32;2.80;99.90
4757;DHT22;2392;52.578;13.426;2022-12-07T04:01:01;2.80;99.90
4757;DHT22;2392;52.578;13.426;2022-12-07T04:03:28;2.80;99.90
4757;DHT22;2392;52.578;13.426;2022-12-07T04:05:55;2.70;99.90
4757;DHT22;2392;52.578;13.426;2022-12-07T04:08:23;2.80;99.90
4757;DHT22;2392;52.578;13.426;2022-12-07T04:10:50;2.70;99.90
4757;DHT22;2392;52.578;13.426;2022-12-07T04:13:18;2.80;99.90
4757;DHT22;2392;52.578;13.426;2022-12-07T04:15:45;2.70;99.90
4757;DHT22;2392;52.578;13.426;2022-12-07T04:18:15;2.70;99.90
4757;DHT22;2392;52.578;13.426;2022-12-07T04:20:42;2.80;99.90
4757;DHT22;2392;52.578;13.426;2022-12-07T04:23:09;2.70;99.90
4757;DHT22;2392;52.578;13.426;2022-12-07T04:25:36;2.80;99.90
4757;DHT22;2392;52.578;13.426;2022-12-07T04:28:03;2.80;99.90
4757;DHT22;2392;52.578;13.426;2022-12-07T04:30:30;2.80;99.90
4757;DHT22;2392;52.578;13.426;2022-12-07T04:32:57;2.80;99.90
4757;DHT22;2392;52.578;13.426;2022-12-07T04:35:26;2.80;99.90
4757;DHT22;2392;52.578;13.426;2022-12-07T04:37:53;2.80;99.90
4757;DHT22;2392;52.578;13.426;2022-12-07T04:40:20;2.80;99.90
4757;DHT22;2392;52.578;13.426;2022-12-07T04:42:46;2.80;99.90
4757;DHT22;2392;52.578;13.426;2022-12-07T04:45:14;2.80;99.90
4757;DHT22;2392;52.578;13.426;2022-12-07T04:47:41;2.70;99.90
4757;DHT22;2392;52.578;13.426;2022-12-07T04:50:09;2.70;99.90
4757;DHT22;2392;52.578;13.426;2022-12-07T04:52:38;2.70;99.90
4757;DHT22;2392;52.578;13.426;2022-12-07T04:55:05;2.70;99.90
4757;DHT22;2392;52.578;13.426;2022-12-07T04:57:32;2.70;99.90
4757;DHT22;2392;52.578;13.426;2022-12-07T05:00:00;2.80;99.90
4757;DHT22;2392;52.578;13.426;2022-12-07T05:02:27;2.80;99.90
4757;DHT22;2392;52.578;13.426;2022-12-07T05:04:53;2.80;99.90
4757;DHT22;2392;52.578;13.426;2022-12-07T05:07:20;2.80;99.90
4757;DHT22;2392;52.578;13.426;2022-12-07T05:09:49;2.80;99.90
4757;DHT22;2392;52.578;13.426;2022-12-07T05:12:18;2.80;99.90
4757;DHT22;2392;52.578;13.426;2022-12-07T05:14:45;2.90;99.90
4757;DHT22;2392;52.578;13.426;2022-12-07T05:17:12;2.90;99.90
4757;DHT22;2392;52.578;13.426;2022-12-07T05:19:39;2.90;99.90
4757;DHT22;2392;52.578;13.426;2022-12-07T05:22:06;2.90;99.90
4757;DHT22;2392;52.578;13.426;2022-12-07T05:24:33;2.90;99.90
4757;DHT22;2392;52.578;13.426;2022-12-07T05:27:02;2.90;99.90
4757;DHT22;2392;52.578;13.426;2022-12-07T05:29:29;2.90;99.90
4757;DHT22;2392;52.578;13.426;2022-12-07T05:31:56;3.00;99.90
4757;DHT22;2392;52.578;13.426;2022-12-07T05:34:23;3.00;99.90
4757;DHT22;2392;52.578;13.426;2022-12-07T05:36:50;3.00;99.90
4757;DHT22;2392;52.578;13.426;2022-12-07T05:39:17;3.00;99.90
4757;DHT22;2392;52.578;13.426;2022-12-07T05:41:44;3.00;99.90
4757;DHT22;2392;52.578;13.426;2022-12-07T05:44:30;3.00;99.90
4757;DHT22;2392;52.578;13.426;2022-12-07T05:46:57;3.00;99.90
4757;DHT22;2392;52.578;13.426;2022-12-07T05:49:24;3.10;99.90
4757;DHT22;2392;52.578;13.426;2022-12-07T05:51:51;3.10;99.90
4757;DHT22;2392;52.578;13.426;2022-12-07T05:54:18;3.10;99.90
4757;DHT22;2392;52.578;13.426;2022-12-07T05:56:45;3.10;99.90
4757;DHT22;2392;52.578;13.426;2022-12-07T05:59:12;3.20;99.90
4757;DHT22;2392;52.578;13.426;2022-12-07T06:01:56;3.20;99.90
4757;DHT22;2392;52.578;13.426;2022-12-07T06:04:24;3.30;99.90
4757;DHT22;2392;52.578;13.426;2022-12-07T06:06:52;3.30;99.90
4757;DHT22;2392;52.578;13.426;2022-12-07T06:09:20;3.30;99.90
4757;DHT22;2392;52.578;13.426;2022-12-07T06:11:47;3.30;99.90
4757;DHT22;2392;52.578;13.426;2022-12-07T06:14:32;3.30;99.90
4757;DHT22;2392;52.578;13.426;2022-12-07T06:17:00;3.40;99.90
4757;DHT22;2392;52.578;13.426;2022-12-07T06:19:27;3.40;99.90
4757;DHT22;2392;52.578;13.426;2022-12-07T06:21:55;3.30;99.90
4757;DHT22;2392;52.578;13.426;2022-12-07T06:24:22;3.30;99.90
4757;DHT22;2392;52.578;13.426;2022-12-07T06:26:50;3.30;99.90
4757;DHT22;2392;52.578;13.426;2022-12-07T06:29:17;3.30;99.90
4757;DHT22;2392;52.578;13.426;2022-12-07T06:31:45;3.30;99.90
4757;DHT22;2392;52.578;13.426;2022-12-07T06:34:15;3.30;99.90
4757;DHT22;2392;52.578;13.426;2022-12-07T06:36:43;3.30;99.90
4757;DHT22;2392;52.578;13.426;2022-12-07T06:39:10;3.30;99.90
4757;DHT22;2392;52.578;13.426;2022-12-07T06:41:37;3.30;99.90
4757;DHT22;2392;52.578;13.426;2022-12-07T06:44:05;3.30;99.90
4757;DHT22;2392;52.578;13.426;2022-12-07T06:46:32;3.40;99.90
4757;DHT22;2392;52.578;13.426;2022-12-07T06:49:01;3.40;99.90
4757;DHT22;2392;52.578;13.426;2022-12-07T06:51:29;3.40;99.90
4757;DHT22;2392;52.578;13.426;2022-12-07T06:53:56;3.50;99.90
4757;DHT22;2392;52.578;13.426;2022-12-07T06:56:23;3.50;99.90
4757;DHT22;2392;52.578;13.426;2022-12-07T06:58:50;3.50;99.90
4757;DHT22;2392;52.578;13.426;2022-12-07T07:01:18;3.50;99.90
4757;DHT22;2392;52.578;13.426;2022-12-07T07:03:46;3.60;99.90
4757;DHT22;2392;52.578;13.426;2022-12-07T07:06:13;3.60;99.90
4757;DHT22;2392;52.578;13.426;2022-12-07T07:08:42;3.60;99.90
4757;DHT22;2392;52.578;13.426;2022-12-07T07:11:10;3.70;99.90
4757;DHT22;2392;52.578;13.426;2022-12-07T07:13:37;3.70;99.90
4757;DHT22;2392;52.578;13.426;2022-12-07T07:16:05;3.70;99.90
4757;DHT22;2392;52.578;13.426;2022-12-07T07:18:32;3.70;99.90
4757;DHT22;2392;52.578;13.426;2022-12-07T07:21:00;3.70;99.90
4757;DHT22;2392;52.578;13.426;2022-12-07T07:23:27;3.70;99.90
4757;DHT22;2392;52.578;13.426;2022-12-07T07:25:55;3.70;99.90
4757;DHT22;2392;52.578;13.426;2022-12-07T07:28:23;3.70;99.90
4757;DHT22;2392;52.578;13.426;2022-12-07T07:30:50;3.70;99.90
4757;DHT22;2392;52.578;13.426;2022-12-07T07:33:17;3.80;99.90
4757;DHT22;2392;52.578;13.426;2022-12-07T07:35:44;3.70;99.90
4757;DHT22;2392;52.578;13.426;2022-12-07T07:38:10;3.70;99.90
4757;DHT22;2392;52.578;13.426;2022-12-07T07:40:37;3.80;99.90
4757;DHT22;2392;52.578;13.426;2022-12-07T07:43:06;3.80;99.90
4757;DHT22;2392;52.578;13.426;2022-12-07T07:45:33;3.80;99.90
4757;DHT22;2392;52.578;13.426;2022-12-07T07:48:00;3.80;99.90
4757;DHT22;2392;52.578;13.426;2022-12-07T07:50:27;3.90;99.90
4757;DHT22;2392;52.578;13.426;2022-12-07T07:52:54;3.90;99.90
4757;DHT22;2392;52.578;13.426;2022-12-07T07:55:21;3.90;99.90
4757;DHT22;2392;52.578;13.426;2022-12-07T07:57:48;3.90;99.90
4757;DHT22;2392;52.578;13.426;2022-12-07T08:00:17;3.90;99.90
4757;DHT22;2392;52.578;13.426;2022-12-07T08:02:44;3.90;99.90
4757;DHT22;2392;52.578;13.426;2022-12-07T08:05:12;4.00;99.90
4757;DHT22;2392;52.578;13.426;2022-12-07T08:07:40;4.00;99.90
4757;DHT22;2392;52.578;13.426;2022-12-07T08:10:08;4.00;99.90
4757;DHT22;2392;52.578;13.426;2022-12-07T08:12:36;4.00;99.90
4757;DHT22;2392;52.578;13.426;2022-12-07T08:15:26;4.00;99.90
4757;DHT22;2392;52.578;13.426;2022-12-07T08:17:53;4.10;99.90
4757;DHT22;2392;52.578;13.426;2022-12-07T08:20:20;4.10;99.90
4757;DHT22;2392;52.578;13.426;2022-12-07T08:22:47;4.10;99.90
4757;DHT22;2392;52.578;13.426;2022-12-07T08:25:14;4.10;99.90
4757;DHT22;2392;52.578;13.426;2022-12-07T08:27:41;4.10;99.90
4757;DHT22;2392;52.578;13.426;2022-12-07T08:30:09;4.10;99.90
4757;DHT22;2392;52.578;13.426;2022-12-07T08:32:37;4.20;99.90
4757;DHT22;2392;52.578;13.426;2022-12-07T08:35:05;4.20;99.90
4757;DHT22;2392;52.578;13.426;2022-12-07T08:37:32;4.20;99.90
4757;DHT22;2392;52.578;13.426;2022-12-07T08:39:59;4.20;99.90
4757;DHT22;2392;52.578;13.426;2022-12-07T08:42:26;4.20;99.90
4757;DHT22;2392;52.578;13.426;2022-12-07T08:44:55;4.20;99.90
4757;DHT22;2392;52.578;13.426;2022-12-07T08:47:24;4.20;99.90
4757;DHT22;2392;52.578;13.426;2022-12-07T08:49:53;4.20;99.90
4757;DHT22;2392;52.578;13.426;2022-12-07T08:52:20;4.20;99.90
4757;DHT22;2392;52.578;13.426;2022-12-07T08:54:47;4.10;99.90
4757;DHT22;2392;52.578;13.426;2022-12-07T08:57:14;4.20;99.90
4757;DHT22;2392;52.578;13.426;2022-12-07T08:59:41;4.20;99.90
4757;DHT22;2392;52.578;13.426;2022-12-07T09:02:08;4.20;99.90
4757;DHT22;2392;52.578;13.426;2022-12-07T09:04:35;4.20;99.90
4757;DHT22;2392;52.578;13.426;2022-12-07T09:07:04;4.20;99.90
4757;DHT22;2392;52.578;13.426;2022-12-07T09:09:31;4.20;99.90
4757;DHT22;2392;52.578;13.426;2022-12-07T09:11:58;4.20;99.90
4757;DHT22;2392;52.578;13.426;2022-12-07T09:14:25;4.20;99.90
4757;DHT22;2392;52.578;13.426;2022-12-07T09:16:52;4.30;99.90
4757;DHT22;2392;52.578;13.426;2022-12-07T09:19:19;4.30;99.90
4757;DHT22;2392;52.578;13.426;2022-12-07T09:21:46;4.30;99.90
4757;DHT22;2392;52.578;13.426;2022-12-07T09:24:15;4.30;99.90
4757;DHT22;2392;52.578;13.426;2022-12-07T09:26:42;4.30;99.90
4757;DHT22;2392;52.578;13.426;2022-12-07T09:29:09;4.30;99.90
4757;DHT22;2392;52.578;13.426;2022-12-07T09:31:37;4.30;99.90
4757;DHT22;2392;52.578;13.426;2022-12-07T09:34:04;4.30;99.90
4757;DHT22;2392;52.578;13.426;2022-12-07T09:36:32;4.30;99.90
4757;DHT22;2392;52.578;13.426;2022-12-07T09:38:59;4.20;99.90
4757;DHT22;2392;52.578;13.426;2022-12-07T09:41:29;4.20;99.90
4757;DHT22;2392;52.578;13.426;2022-12-07T09:44:03;4.20;99.90
4757;DHT22;2392;52.578;13.426;2022-12-07T09:46:34;4.20;99.90
4757;DHT22;2392;52.578;13.426;2022-12-07T09:49:03;4.10;99.90
4757;DHT22;2392;52.578;13.426;2022-12-07T09:51:31;4.20;99.90
4757;DHT22;2392;52.578;13.426;2022-12-07T09:53:59;4.10;99.90
4757;DHT22;2392;52.578;13.426;2022-12-07T09:56:30;4.10;99.90
4757;DHT22;2392;52.578;13.426;2022-12-07T09:59:01;4.00;99.90
4757;DHT22;2392;52.578;13.426;2022-12-07T10:01:31;4.10;99.90
4757;DHT22;2392;52.578;13.426;2022-12-07T10:04:06;4.00;99.90
4757;DHT22;2392;52.578;13.426;2022-12-07T10:06:36;4.10;99.90
4757;DHT22;2392;52.578;13.426;2022-12-07T10:09:09;4.10;99.90
4757;DHT22;2392;52.578;13.426;2022-12-07T10:11:58;4.10;99.90
4757;DHT22;2392;52.578;13.426;2022-12-07T10:14:28;4.10;99.90
4757;DHT22;2392;52.578;13.426;2022-12-07T10:16:55;4.10;99.90
4757;DHT22;2392;52.578;13.426;2022-12-07T10:19:25;4.10;99.90
4757;DHT22;2392;52.578;13.426;2022-12-07T10:22:04;4.10;99.90
4757;DHT22;2392;52.578;13.426;2022-12-07T10:24:31;4.10;99.90
4757;DHT22;2392;52.578;13.426;2022-12-07T10:27:00;4.10;99.90
4757;DHT22;2392;52.578;13.426;2022-12-07T10:29:30;4.20;99.90
4757;DHT22;2392;52.578;13.426;2022-12-07T10:31:59;4.30;99.90
4757;DHT22;2392;52.578;13.426;2022-12-07T10:34:27;4.50;99.90
4757;DHT22;2392;52.578;13.426;2022-12-07T10:37:13;4.60;99.90
4757;DHT22;2392;52.578;13.426;2022-12-07T10:39:42;4.70;99.90
4757;DHT22;2392;52.578;13.426;2022-12-07T10:42:18;4.80;99.90
4757;DHT22;2392;52.578;13.426;2022-12-07T10:44:46;4.80;99.90
4757;DHT22;2392;52.578;13.426;2022-12-07T10:47:26;4.90;99.90
4757;DHT22;2392;52.578;13.426;2022-12-07T10:53:16;5.10;99.90
4757;DHT22;2392;52.578;13.426;2022-12-07T10:56:05;5.20;99.90
4757;DHT22;2392;52.578;13.426;2022-12-07T10:58:49;5.20;99.90
4757;DHT22;2392;52.578;13.426;2022-12-07T11:01:24;5.10;99.90
4757;DHT22;2392;52.578;13.426;2022-12-07T11:04:10;5.00;99.90
4757;DHT22;2392;52.578;13.426;2022-12-07T11:06:46;4.90;99.90
4757;DHT22;2392;52.578;13.426;2022-12-07T11:09:36;4.80;99.90
4757;DHT22;2392;52.578;13.426;2022-12-07T11:12:10;4.80;99.90
4757;DHT22;2392;52.578;13.426;2022-12-07T11:14:48;4.70;99.90
4757;DHT22;2392;52.578;13.426;2022-12-07T11:17:24;4.60;99.90
4757;DHT22;2392;52.578;13.426;2022-12-07T11:20:02;4.60;99.90
4757;DHT22;2392;52.578;13.426;2022-12-07T11:22:36;4.60;99.90
4757;DHT22;2392;52.578;13.426;2022-12-07T11:25:20;4.60;99.90
4757;DHT22;2392;52.578;13.426;2022-12-07T11:28:02;4.50;99.90
4757;DHT22;2392;52.578;13.426;2022-12-07T11:30:35;4.60;99.90
4757;DHT22;2392;52.578;13.426;2022-12-07T11:33:12;4.60;99.90
4757;DHT22;2392;52.578;13.426;2022-12-07T11:35:49;4.60;99.90
4757;DHT22;2392;52.578;13.426;2022-12-07T11:38:21;4.60;99.90
4757;DHT22;2392;52.578;13.426;2022-12-07T11:40:49;4.70;99.90
4757;DHT22;2392;52.578;13.426;2022-12-07T11:43:22;4.80;99.90
4757;DHT22;2392;52.578;13.426;2022-12-07T11:45:58;4.80;99.90
4757;DHT22;2392;52.578;13.426;2022-12-07T11:48:33;4.80;99.90
4757;DHT22;2392;52.578;13.426;2022-12-07T11:51:02;4.80;99.90
4757;DHT22;2392;52.578;13.426;2022-12-07T11:53:35;4.70;99.90
4757;DHT22;2392;52.578;13.426;2022-12-07T11:56:08;4.70;99.90
4757;DHT22;2392;52.578;13.426;2022-12-07T11:58:48;4.80;99.90
4757;DHT22;2392;52.578;13.426;2022-12-07T12:01:31;4.80;99.90
4757;DHT22;2392;52.578;13.426;2022-12-07T12:04:06;4.80;99.90
4757;DHT22;2392;52.578;13.426;2022-12-07T12:06:41;4.90;99.90
4757;DHT22;2392;52.578;13.426;2022-12-07T12:09:13;4.90;99.90
4757;DHT22;2392;52.578;13.426;2022-12-07T12:12:01;4.90;99.90
4757;DHT22;2392;52.578;13.426;2022-12-07T12:14:44;4.90;99.90
4757;DHT22;2392;52.578;13.426;2022-12-07T12:20:16;4.80;99.90
4757;DHT22;2392;52.578;13.426;2022-12-07T12:22:50;4.90;99.90
4757;DHT22;2392;52.578;13.426;2022-12-07T12:25:21;4.90;99.90
4757;DHT22;2392;52.578;13.426;2022-12-07T12:27:50;4.90;99.90
4757;DHT22;2392;52.578;13.426;2022-12-07T12:30:34;4.90;99.90
4757;DHT22;2392;52.578;13.426;2022-12-07T12:33:06;4.90;99.90
4757;DHT22;2392;52.578;13.426;2022-12-07T12:35:34;4.80;99.90
4757;DHT22;2392;52.578;13.426;2022-12-07T12:38:31;4.90;99.90
4757;DHT22;2392;52.578;13.426;2022-12-07T12:41:00;4.90;99.90
4757;DHT22;2392;52.578;13.426;2022-12-07T12:43:48;4.90;99.90
4757;DHT22;2392;52.578;13.426;2022-12-07T12:46:53;4.90;99.90
4757;DHT22;2392;52.578;13.426;2022-12-07T12:49:54;4.90;99.90
4757;DHT22;2392;52.578;13.426;2022-12-07T12:53:12;4.90;99.90
4757;DHT22;2392;52.578;13.426;2022-12-07T12:56:13;4.90;99.90
4757;DHT22;2392;52.578;13.426;2022-12-07T12:58:44;4.90;99.90
4757;DHT22;2392;52.578;13.426;2022-12-07T13:01:44;5.00;99.90
4757;DHT22;2392;52.578;13.426;2022-12-07T13:04:27;5.00;99.90
4757;DHT22;2392;52.578;13.426;2022-12-07T13:06:56;4.90;99.90
4757;DHT22;2392;52.578;13.426;2022-12-07T13:09:26;4.90;99.90
4757;DHT22;2392;52.578;13.426;2022-12-07T13:12:01;4.90;99.90
4757;DHT22;2392;52.578;13.426;2022-12-07T13:14:56;4.90;99.90
4757;DHT22;2392;52.578;13.426;2022-12-07T13:17:58;4.90;99.90
4757;DHT22;2392;52.578;13.426;2022-12-07T13:20:47;4.90;99.90
4757;DHT22;2392;52.578;13.426;2022-12-07T13:23:18;4.90;99.90
4757;DHT22;2392;52.578;13.426;2022-12-07T13:25:51;4.90;99.90
4757;DHT22;2392;52.578;13.426;2022-12-07T13:28:22;4.90;99.90
4757;DHT22;2392;52.578;13.426;2022-12-07T13:31:03;4.90;99.90
4757;DHT22;2392;52.578;13.426;2022-12-07T13:33:32;4.90;99.90
4757;DHT22;2392;52.578;13.426;2022-12-07T13:36:01;4.90;99.90
4757;DHT22;2392;52.578;13.426;2022-12-07T13:38:32;4.90;99.90
4757;DHT22;2392;52.578;13.426;2022-12-07T13:41:02;4.80;99.90
4757;DHT22;2392;52.578;13.426;2022-12-07T13:43:29;4.80;99.90
4757;DHT22;2392;52.578;13.426;2022-12-07T13:45:57;4.80;99.90
4757;DHT22;2392;52.578;13.426;2022-12-07T13:48:30;4.80;99.90
4757;DHT22;2392;52.578;13.426;2022-12-07T13:51:00;4.80;99.90
4757;DHT22;2392;52.578;13.426;2022-12-07T13:53:29;4.80;99.90
4757;DHT22;2392;52.578;13.426;2022-12-07T13:55:57;4.80;99.90
4757;DHT22;2392;52.578;13.426;2022-12-07T13:58:25;4.80;99.90
4757;DHT22;2392;52.578;13.426;2022-12-07T14:00:53;4.80;99.90
4757;DHT22;2392;52.578;13.426;2022-12-07T14:03:32;4.80;99.90
4757;DHT22;2392;52.578;13.426;2022-12-07T14:06:13;4.80;99.90
4757;DHT22;2392;52.578;13.426;2022-12-07T14:08:44;4.80;99.90
4757;DHT22;2392;52.578;13.426;2022-12-07T14:11:17;4.80;99.90
4757;DHT22;2392;52.578;13.426;2022-12-07T14:13:56;4.80;99.90
4757;DHT22;2392;52.578;13.426;2022-12-07T14:16:28;4.80;99.90
4757;DHT22;2392;52.578;13.426;2022-12-07T14:18:56;4.70;99.90
4757;DHT22;2392;52.578;13.426;2022-12-07T14:21:25;4.70;99.90
4757;DHT22;2392;52.578;13.426;2022-12-07T14:24:14;4.70;99.90
4757;DHT22;2392;52.578;13.426;2022-12-07T14:26:42;4.80;99.90
4757;DHT22;2392;52.578;13.426;2022-12-07T14:29:29;4.80;99.90
4757;DHT22;2392;52.578;13.426;2022-12-07T14:31:59;4.70;99.90
4757;DHT22;2392;52.578;13.426;2022-12-07T14:34:40;4.70;99.90
4757;DHT22;2392;52.578;13.426;2022-12-07T14:37:08;4.70;99.90
4757;DHT22;2392;52.578;13.426;2022-12-07T14:39:37;4.70;99.90
4757;DHT22;2392;52.578;13.426;2022-12-07T14:42:04;4.70;99.90
4757;DHT22;2392;52.578;13.426;2022-12-07T14:44:31;4.70;99.90
4757;DHT22;2392;52.578;13.426;2022-12-07T14:46:58;4.70;99.90
4757;DHT22;2392;52.578;13.426;2022-12-07T14:49:25;4.70;99.90
4757;DHT22;2392;52.578;13.426;2022-12-07T14:51:52;4.60;99.90
4757;DHT22;2392;52.578;13.426;2022-12-07T14:54:21;4.60;99.90
4757;DHT22;2392;52.578;13.426;2022-12-07T14:56:50;4.60;99.90
4757;DHT22;2392;52.578;13.426;2022-12-07T14:59:17;4.50;99.90
4757;DHT22;2392;52.578;13.426;2022-12-07T15:01:45;4.50;99.90
4757;DHT22;2392;52.578;13.426;2022-12-07T15:04:12;4.40;99.90
4757;DHT22;2392;52.578;13.426;2022-12-07T15:06:54;4.40;99.90
4757;DHT22;2392;52.578;13.426;2022-12-07T15:09:21;4.30;99.90
4757;DHT22;2392;52.578;13.426;2022-12-07T15:11:50;4.30;99.90
4757;DHT22;2392;52.578;13.426;2022-12-07T15:14:17;4.20;99.90
4757;DHT22;2392;52.578;13.426;2022-12-07T15:16:44;4.20;99.90
4757;DHT22;2392;52.578;13.426;2022-12-07T15:19:14;4.20;99.90
4757;DHT22;2392;52.578;13.426;2022-12-07T15:21:41;4.20;99.90
4757;DHT22;2392;52.578;13.426;2022-12-07T15:24:09;4.20;99.90
4757;DHT22;2392;52.578;13.426;2022-12-07T15:26:37;4.20;99.90
4757;DHT22;2392;52.578;13.426;2022-12-07T15:29:06;4.10;99.90
4757;DHT22;2392;52.578;13.426;2022-12-07T15:31:33;4.10;99.90
4757;DHT22;2392;52.578;13.426;2022-12-07T15:34:00;4.10;99.90
4757;DHT22;2392;52.578;13.426;2022-12-07T15:36:29;4.10;99.90
4757;DHT22;2392;52.578;13.426;2022-12-07T15:38:57;4.10;99.90
4757;DHT22;2392;52.578;13.426;2022-12-07T15:41:24;4.00;99.90
4757;DHT22;2392;52.578;13.426;2022-12-07T15:43:51;4.00;99.90
4757;DHT22;2392;52.578;13.426;2022-12-07T15:46:39;3.90;99.90
4757;DHT22;2392;52.578;13.426;2022-12-07T15:49:12;4.00;99.90
4757;DHT22;2392;52.578;13.426;2022-12-07T15:51:41;4.00;99.90
4757;DHT22;2392;52.578;13.426;2022-12-07T15:54:13;4.00;99.90
4757;DHT22;2392;52.578;13.426;2022-12-07T15:56:40;4.00;99.90
4757;DHT22;2392;52.578;13.426;2022-12-07T15:59:07;4.00;99.90
4757;DHT22;2392;52.578;13.426;2022-12-07T16:01:34;4.00;99.90
4757;DHT22;2392;52.578;13.426;2022-12-07T16:04:02;4.00;99.90
4757;DHT22;2392;52.578;13.426;2022-12-07T16:06:29;4.00;99.90
4757;DHT22;2392;52.578;13.426;2022-12-07T16:08:57;4.00;99.90
4757;DHT22;2392;52.578;13.426;2022-12-07T16:11:24;4.00;99.90
4757;DHT22;2392;52.578;13.426;2022-12-07T16:13:51;4.10;99.90
4757;DHT22;2392;52.578;13.426;2022-12-07T16:16:19;4.10;99.90
4757;DHT22;2392;52.578;13.426;2022-12-07T16:18:48;4.10;99.90
4757;DHT22;2392;52.578;13.426;2022-12-07T16:21:17;4.10;99.90
4757;DHT22;2392;52.578;13.426;2022-12-07T16:23:44;4.10;99.90
4757;DHT22;2392;52.578;13.426;2022-12-07T16:26:13;4.10;99.90
4757;DHT22;2392;52.578;13.426;2022-12-07T16:28:41;4.00;99.90
4757;DHT22;2392;52.578;13.426;2022-12-07T16:31:10;4.00;99.90
4757;DHT22;2392;52.578;13.426;2022-12-07T16:33:39;4.00;99.90
4757;DHT22;2392;52.578;13.426;2022-12-07T16:36:07;4.00;99.90